North Amityville, New York
Current Conditions -  °F | °C
As of 3:53 PM on Sunday 23 Nov 2014 (Local Time) from KFRG Reporting Station
Clear Clear  
Wind Chill: 51°   Ceiling: Unl
Heat Index: 51°   Visibility: 10mi
Dew Point: 33°   Wind: 7mph
Humidity: 50%   Direction: 190°S
Pressure: 30.15"   Gusts: NA
Location:  40.6858°N, 73.4152°W
Report Text: KFRG 232053Z 19006KT 10SM CLR 11/01 A3015 RMK AO2 SLP210 T01060006 50000
Loading
Personal Weather Stations






























Interactive Weather Map New forecast layout! Learn more

10-Day Weather Forecast

Advertisements
Track Severe Weather on mobile